sensor_id;sensor_type;location;lat;lon;timestamp;temperature;humidity
6054;DHT22;3055;50.886;14.814;2024-03-02T00:01:37;10.40;99.90
6054;DHT22;3055;50.886;14.814;2024-03-02T00:04:05;10.40;99.90
6054;DHT22;3055;50.886;14.814;2024-03-02T00:06:33;10.30;99.90
6054;DHT22;3055;50.886;14.814;2024-03-02T00:09:00;10.30;99.90
6054;DHT22;3055;50.886;14.814;2024-03-02T00:11:27;10.30;99.90
6054;DHT22;3055;50.886;14.814;2024-03-02T00:13:54;10.40;99.90
6054;DHT22;3055;50.886;14.814;2024-03-02T00:16:23;10.60;99.90
6054;DHT22;3055;50.886;14.814;2024-03-02T00:18:51;10.70;99.90
6054;DHT22;3055;50.886;14.814;2024-03-02T00:21:18;10.70;99.90
6054;DHT22;3055;50.886;14.814;2024-03-02T00:23:48;10.70;99.90
6054;DHT22;3055;50.886;14.814;2024-03-02T00:26:17;10.70;99.90
6054;DHT22;3055;50.886;14.814;2024-03-02T00:28:44;10.80;99.90
6054;DHT22;3055;50.886;14.814;2024-03-02T00:31:12;10.80;99.90
6054;DHT22;3055;50.886;14.814;2024-03-02T00:33:43;10.80;99.90
6054;DHT22;3055;50.886;14.814;2024-03-02T00:36:12;10.80;99.90
6054;DHT22;3055;50.886;14.814;2024-03-02T00:38:44;10.80;99.90
6054;DHT22;3055;50.886;14.814;2024-03-02T00:41:17;10.80;99.90
6054;DHT22;3055;50.886;14.814;2024-03-02T00:44:02;10.80;99.90
6054;DHT22;3055;50.886;14.814;2024-03-02T00:46:34;10.80;99.90
6054;DHT22;3055;50.886;14.814;2024-03-02T00:49:04;10.90;99.90
6054;DHT22;3055;50.886;14.814;2024-03-02T00:51:33;10.90;99.90
6054;DHT22;3055;50.886;14.814;2024-03-02T00:54:03;10.80;99.90
6054;DHT22;3055;50.886;14.814;2024-03-02T00:56:31;10.80;99.90
6054;DHT22;3055;50.886;14.814;2024-03-02T00:58:59;10.80;99.90
6054;DHT22;3055;50.886;14.814;2024-03-02T01:01:26;10.80;99.90
6054;DHT22;3055;50.886;14.814;2024-03-02T01:03:53;10.70;99.90
6054;DHT22;3055;50.886;14.814;2024-03-02T01:06:22;10.80;99.90
6054;DHT22;3055;50.886;14.814;2024-03-02T01:08:49;10.80;99.90
6054;DHT22;3055;50.886;14.814;2024-03-02T01:11:17;10.70;99.90
6054;DHT22;3055;50.886;14.814;2024-03-02T01:13:44;10.70;99.90
6054;DHT22;3055;50.886;14.814;2024-03-02T01:16:12;10.70;99.90
6054;DHT22;3055;50.886;14.814;2024-03-02T01:18:39;10.70;99.90
6054;DHT22;3055;50.886;14.814;2024-03-02T01:21:06;10.70;99.90
6054;DHT22;3055;50.886;14.814;2024-03-02T01:23:34;10.80;99.90
6054;DHT22;3055;50.886;14.814;2024-03-02T01:26:01;10.80;99.90
6054;DHT22;3055;50.886;14.814;2024-03-02T01:28:28;10.70;99.90
6054;DHT22;3055;50.886;14.814;2024-03-02T01:30:55;10.70;99.90
6054;DHT22;3055;50.886;14.814;2024-03-02T01:33:22;10.70;99.90
6054;DHT22;3055;50.886;14.814;2024-03-02T01:35:50;10.70;99.90
6054;DHT22;3055;50.886;14.814;2024-03-02T01:38:17;10.70;99.90
6054;DHT22;3055;50.886;14.814;2024-03-02T01:40:45;10.70;99.90
6054;DHT22;3055;50.886;14.814;2024-03-02T01:43:12;10.70;99.90
6054;DHT22;3055;50.886;14.814;2024-03-02T01:45:39;10.70;99.90
6054;DHT22;3055;50.886;14.814;2024-03-02T01:48:07;10.70;99.90
6054;DHT22;3055;50.886;14.814;2024-03-02T01:50:34;10.70;99.90
6054;DHT22;3055;50.886;14.814;2024-03-02T01:53:02;10.70;99.90
6054;DHT22;3055;50.886;14.814;2024-03-02T01:55:29;10.70;99.90
6054;DHT22;3055;50.886;14.814;2024-03-02T01:57:58;10.70;99.90
6054;DHT22;3055;50.886;14.814;2024-03-02T02:00:25;10.70;99.90
6054;DHT22;3055;50.886;14.814;2024-03-02T02:02:53;10.70;99.90
6054;DHT22;3055;50.886;14.814;2024-03-02T02:05:20;10.70;99.90
6054;DHT22;3055;50.886;14.814;2024-03-02T02:07:47;10.70;99.90
6054;DHT22;3055;50.886;14.814;2024-03-02T02:10:14;10.70;99.90
6054;DHT22;3055;50.886;14.814;2024-03-02T02:12:42;10.70;99.90
6054;DHT22;3055;50.886;14.814;2024-03-02T02:15:26;10.70;99.90
6054;DHT22;3055;50.886;14.814;2024-03-02T02:17:54;10.70;99.90
6054;DHT22;3055;50.886;14.814;2024-03-02T02:20:21;10.70;99.90
6054;DHT22;3055;50.886;14.814;2024-03-02T02:22:57;10.70;99.90
6054;DHT22;3055;50.886;14.814;2024-03-02T02:25:24;10.70;99.90
6054;DHT22;3055;50.886;14.814;2024-03-02T02:27:52;10.80;99.90
6054;DHT22;3055;50.886;14.814;2024-03-02T02:30:22;10.80;99.90
6054;DHT22;3055;50.886;14.814;2024-03-02T02:32:50;10.70;99.90
6054;DHT22;3055;50.886;14.814;2024-03-02T02:35:17;10.80;99.90
6054;DHT22;3055;50.886;14.814;2024-03-02T02:37:44;10.80;99.90
6054;DHT22;3055;50.886;14.814;2024-03-02T02:40:14;10.80;99.90
6054;DHT22;3055;50.886;14.814;2024-03-02T02:42:41;10.80;99.90
6054;DHT22;3055;50.886;14.814;2024-03-02T02:45:08;10.80;99.90
6054;DHT22;3055;50.886;14.814;2024-03-02T02:47:36;10.70;99.90
6054;DHT22;3055;50.886;14.814;2024-03-02T02:50:06;10.80;99.90
6054;DHT22;3055;50.886;14.814;2024-03-02T02:52:34;10.80;99.90
6054;DHT22;3055;50.886;14.814;2024-03-02T02:55:03;10.80;99.90
6054;DHT22;3055;50.886;14.814;2024-03-02T02:57:32;10.70;99.90
6054;DHT22;3055;50.886;14.814;2024-03-02T03:00:02;10.80;99.90
6054;DHT22;3055;50.886;14.814;2024-03-02T03:02:38;10.80;99.90
6054;DHT22;3055;50.886;14.814;2024-03-02T03:05:08;10.70;99.90
6054;DHT22;3055;50.886;14.814;2024-03-02T03:07:35;10.70;99.90
6054;DHT22;3055;50.886;14.814;2024-03-02T03:10:03;10.70;99.90
6054;DHT22;3055;50.886;14.814;2024-03-02T03:12:31;10.70;99.90
6054;DHT22;3055;50.886;14.814;2024-03-02T03:14:59;10.70;99.90
6054;DHT22;3055;50.886;14.814;2024-03-02T03:17:26;10.80;99.90
6054;DHT22;3055;50.886;14.814;2024-03-02T03:19:53;10.70;99.90
6054;DHT22;3055;50.886;14.814;2024-03-02T03:22:21;10.70;99.90
6054;DHT22;3055;50.886;14.814;2024-03-02T03:24:48;10.70;99.90
6054;DHT22;3055;50.886;14.814;2024-03-02T03:27:15;10.70;99.90
6054;DHT22;3055;50.886;14.814;2024-03-02T03:29:43;10.70;99.90
6054;DHT22;3055;50.886;14.814;2024-03-02T03:32:10;10.60;99.90
6054;DHT22;3055;50.886;14.814;2024-03-02T03:34:38;10.70;99.90
6054;DHT22;3055;50.886;14.814;2024-03-02T03:37:05;10.70;99.90
6054;DHT22;3055;50.886;14.814;2024-03-02T03:39:34;10.70;99.90
6054;DHT22;3055;50.886;14.814;2024-03-02T03:42:01;10.70;99.90
6054;DHT22;3055;50.886;14.814;2024-03-02T03:44:28;10.70;99.90
6054;DHT22;3055;50.886;14.814;2024-03-02T03:46:57;10.70;99.90
6054;DHT22;3055;50.886;14.814;2024-03-02T03:49:24;10.70;99.90
6054;DHT22;3055;50.886;14.814;2024-03-02T03:51:51;10.70;99.90
6054;DHT22;3055;50.886;14.814;2024-03-02T03:54:18;10.70;99.90
6054;DHT22;3055;50.886;14.814;2024-03-02T03:56:45;10.70;99.90
6054;DHT22;3055;50.886;14.814;2024-03-02T03:59:12;10.60;99.90
6054;DHT22;3055;50.886;14.814;2024-03-02T04:01:40;10.60;99.90
6054;DHT22;3055;50.886;14.814;2024-03-02T04:04:10;10.60;99.90
6054;DHT22;3055;50.886;14.814;2024-03-02T04:06:37;10.60;99.90
6054;DHT22;3055;50.886;14.814;2024-03-02T04:09:04;10.60;99.90
6054;DHT22;3055;50.886;14.814;2024-03-02T04:11:31;10.60;99.90
6054;DHT22;3055;50.886;14.814;2024-03-02T04:13:58;10.50;99.90
6054;DHT22;3055;50.886;14.814;2024-03-02T04:16:26;10.50;99.90
6054;DHT22;3055;50.886;14.814;2024-03-02T04:18:54;10.50;99.90
6054;DHT22;3055;50.886;14.814;2024-03-02T04:21:22;10.60;99.90
6054;DHT22;3055;50.886;14.814;2024-03-02T04:23:50;10.50;99.90
6054;DHT22;3055;50.886;14.814;2024-03-02T04:26:17;10.50;99.90
6054;DHT22;3055;50.886;14.814;2024-03-02T04:28:47;10.50;99.90
6054;DHT22;3055;50.886;14.814;2024-03-02T04:31:15;10.40;99.90
6054;DHT22;3055;50.886;14.814;2024-03-02T04:33:42;10.50;99.90
6054;DHT22;3055;50.886;14.814;2024-03-02T04:36:09;10.50;99.90
6054;DHT22;3055;50.886;14.814;2024-03-02T04:38:38;10.50;99.90
6054;DHT22;3055;50.886;14.814;2024-03-02T04:41:06;10.40;99.90
6054;DHT22;3055;50.886;14.814;2024-03-02T04:43:34;10.50;99.90
6054;DHT22;3055;50.886;14.814;2024-03-02T04:46:01;10.40;99.90
6054;DHT22;3055;50.886;14.814;2024-03-02T04:48:28;10.40;99.90
6054;DHT22;3055;50.886;14.814;2024-03-02T04:50:55;10.40;99.90
6054;DHT22;3055;50.886;14.814;2024-03-02T04:53:22;10.40;99.90
6054;DHT22;3055;50.886;14.814;2024-03-02T04:55:51;10.40;99.90
6054;DHT22;3055;50.886;14.814;2024-03-02T04:58:35;10.40;99.90
6054;DHT22;3055;50.886;14.814;2024-03-02T05:01:03;10.40;99.90
6054;DHT22;3055;50.886;14.814;2024-03-02T05:03:30;10.40;99.90
6054;DHT22;3055;50.886;14.814;2024-03-02T05:05:57;10.40;99.90
6054;DHT22;3055;50.886;14.814;2024-03-02T05:08:24;10.40;99.90
6054;DHT22;3055;50.886;14.814;2024-03-02T05:10:52;10.40;99.90
6054;DHT22;3055;50.886;14.814;2024-03-02T05:13:19;10.30;99.90
6054;DHT22;3055;50.886;14.814;2024-03-02T05:15:47;10.30;99.90
6054;DHT22;3055;50.886;14.814;2024-03-02T05:18:14;10.30;99.90
6054;DHT22;3055;50.886;14.814;2024-03-02T05:20:41;10.30;99.90
6054;DHT22;3055;50.886;14.814;2024-03-02T05:23:08;10.30;99.90
6054;DHT22;3055;50.886;14.814;2024-03-02T05:25:35;10.20;99.90
6054;DHT22;3055;50.886;14.814;2024-03-02T05:28:04;10.20;99.90
6054;DHT22;3055;50.886;14.814;2024-03-02T05:30:32;10.30;99.90
6054;DHT22;3055;50.886;14.814;2024-03-02T05:32:59;10.30;99.90
6054;DHT22;3055;50.886;14.814;2024-03-02T05:35:26;10.30;99.90
6054;DHT22;3055;50.886;14.814;2024-03-02T05:37:53;10.20;99.90
6054;DHT22;3055;50.886;14.814;2024-03-02T05:40:20;10.20;99.90
6054;DHT22;3055;50.886;14.814;2024-03-02T05:42:47;10.20;99.90
6054;DHT22;3055;50.886;14.814;2024-03-02T05:45:16;10.20;99.90
6054;DHT22;3055;50.886;14.814;2024-03-02T05:47:43;10.20;99.90
6054;DHT22;3055;50.886;14.814;2024-03-02T05:50:10;10.20;99.90
6054;DHT22;3055;50.886;14.814;2024-03-02T05:52:37;10.20;99.90
6054;DHT22;3055;50.886;14.814;2024-03-02T05:55:05;10.20;99.90
6054;DHT22;3055;50.886;14.814;2024-03-02T05:57:32;10.20;99.90
6054;DHT22;3055;50.886;14.814;2024-03-02T06:00:13;10.20;99.90
6054;DHT22;3055;50.886;14.814;2024-03-02T06:02:44;10.20;99.90
6054;DHT22;3055;50.886;14.814;2024-03-02T06:05:11;10.20;99.90
6054;DHT22;3055;50.886;14.814;2024-03-02T06:07:38;10.10;99.90
6054;DHT22;3055;50.886;14.814;2024-03-02T06:10:06;10.20;99.90
6054;DHT22;3055;50.886;14.814;2024-03-02T06:12:34;10.10;99.90
6054;DHT22;3055;50.886;14.814;2024-03-02T06:15:01;10.20;99.90
6054;DHT22;3055;50.886;14.814;2024-03-02T06:17:29;10.10;99.90
6054;DHT22;3055;50.886;14.814;2024-03-02T06:19:58;10.10;99.90
6054;DHT22;3055;50.886;14.814;2024-03-02T06:22:25;10.10;99.90
6054;DHT22;3055;50.886;14.814;2024-03-02T06:24:52;10.10;99.90
6054;DHT22;3055;50.886;14.814;2024-03-02T06:27:19;10.10;99.90
6054;DHT22;3055;50.886;14.814;2024-03-02T06:29:46;10.10;99.90
6054;DHT22;3055;50.886;14.814;2024-03-02T06:32:14;10.20;99.90
6054;DHT22;3055;50.886;14.814;2024-03-02T06:34:41;10.20;99.90
6054;DHT22;3055;50.886;14.814;2024-03-02T06:37:10;10.20;99.90
6054;DHT22;3055;50.886;14.814;2024-03-02T06:39:37;10.20;99.90
6054;DHT22;3055;50.886;14.814;2024-03-02T06:42:04;10.20;99.90
6054;DHT22;3055;50.886;14.814;2024-03-02T06:44:31;10.20;99.90
6054;DHT22;3055;50.886;14.814;2024-03-02T06:46:59;10.10;99.90
6054;DHT22;3055;50.886;14.814;2024-03-02T06:49:26;10.10;99.90
6054;DHT22;3055;50.886;14.814;2024-03-02T06:51:53;10.10;99.90
6054;DHT22;3055;50.886;14.814;2024-03-02T06:54:22;10.10;99.90
6054;DHT22;3055;50.886;14.814;2024-03-02T06:56:49;10.00;99.90
6054;DHT22;3055;50.886;14.814;2024-03-02T06:59:17;10.00;99.90
6054;DHT22;3055;50.886;14.814;2024-03-02T07:01:44;10.00;99.90
6054;DHT22;3055;50.886;14.814;2024-03-02T07:04:11;10.00;99.90
6054;DHT22;3055;50.886;14.814;2024-03-02T07:06:38;10.10;99.90
6054;DHT22;3055;50.886;14.814;2024-03-02T07:09:05;10.20;99.90
6054;DHT22;3055;50.886;14.814;2024-03-02T07:11:38;10.30;99.90
6054;DHT22;3055;50.886;14.814;2024-03-02T07:14:05;10.30;99.90
6054;DHT22;3055;50.886;14.814;2024-03-02T07:16:32;10.40;99.90
6054;DHT22;3055;50.886;14.814;2024-03-02T07:19:00;10.50;99.90
6054;DHT22;3055;50.886;14.814;2024-03-02T07:21:28;10.50;99.90
6054;DHT22;3055;50.886;14.814;2024-03-02T07:23:55;10.50;99.90
6054;DHT22;3055;50.886;14.814;2024-03-02T07:26:22;10.60;99.90
6054;DHT22;3055;50.886;14.814;2024-03-02T07:28:51;10.70;99.90
6054;DHT22;3055;50.886;14.814;2024-03-02T07:31:18;10.60;99.90
6054;DHT22;3055;50.886;14.814;2024-03-02T07:33:45;10.70;99.90
6054;DHT22;3055;50.886;14.814;2024-03-02T07:36:13;10.70;99.90
6054;DHT22;3055;50.886;14.814;2024-03-02T07:38:40;10.80;99.90
6054;DHT22;3055;50.886;14.814;2024-03-02T07:41:08;10.80;99.90
6054;DHT22;3055;50.886;14.814;2024-03-02T07:43:37;10.80;99.90
6054;DHT22;3055;50.886;14.814;2024-03-02T07:46:05;10.80;99.90
6054;DHT22;3055;50.886;14.814;2024-03-02T07:48:32;10.80;99.90
6054;DHT22;3055;50.886;14.814;2024-03-02T07:51:00;10.80;99.90
6054;DHT22;3055;50.886;14.814;2024-03-02T07:53:28;10.80;99.90
6054;DHT22;3055;50.886;14.814;2024-03-02T07:55:55;10.80;99.90
6054;DHT22;3055;50.886;14.814;2024-03-02T07:58:27;10.80;99.90
6054;DHT22;3055;50.886;14.814;2024-03-02T08:00:54;10.70;99.90
6054;DHT22;3055;50.886;14.814;2024-03-02T08:03:23;10.70;99.90
6054;DHT22;3055;50.886;14.814;2024-03-02T08:05:50;10.70;99.90
6054;DHT22;3055;50.886;14.814;2024-03-02T08:08:18;10.70;99.90
6054;DHT22;3055;50.886;14.814;2024-03-02T08:10:45;10.60;99.90
6054;DHT22;3055;50.886;14.814;2024-03-02T08:13:12;10.60;99.90
6054;DHT22;3055;50.886;14.814;2024-03-02T08:15:40;10.60;99.90
6054;DHT22;3055;50.886;14.814;2024-03-02T08:18:07;10.60;99.90
6054;DHT22;3055;50.886;14.814;2024-03-02T08:20:35;10.70;99.90
6054;DHT22;3055;50.886;14.814;2024-03-02T08:23:03;10.70;99.90
6054;DHT22;3055;50.886;14.814;2024-03-02T08:25:30;10.80;99.90
6054;DHT22;3055;50.886;14.814;2024-03-02T08:27:58;10.80;99.90
6054;DHT22;3055;50.886;14.814;2024-03-02T08:30:25;10.80;99.90
6054;DHT22;3055;50.886;14.814;2024-03-02T08:32:52;10.70;99.90
6054;DHT22;3055;50.886;14.814;2024-03-02T08:35:19;10.70;99.90
6054;DHT22;3055;50.886;14.814;2024-03-02T08:37:49;10.60;99.90
6054;DHT22;3055;50.886;14.814;2024-03-02T08:40:16;10.60;99.90
6054;DHT22;3055;50.886;14.814;2024-03-02T08:42:43;10.60;99.90
6054;DHT22;3055;50.886;14.814;2024-03-02T08:45:11;10.60;99.90
6054;DHT22;3055;50.886;14.814;2024-03-02T08:47:38;10.70;99.90
6054;DHT22;3055;50.886;14.814;2024-03-02T08:50:07;10.70;99.90
6054;DHT22;3055;50.886;14.814;2024-03-02T08:52:34;10.80;99.90
6054;DHT22;3055;50.886;14.814;2024-03-02T08:55:03;10.80;99.90
6054;DHT22;3055;50.886;14.814;2024-03-02T08:57:30;10.80;99.90
6054;DHT22;3055;50.886;14.814;2024-03-02T08:59:58;10.90;99.90
6054;DHT22;3055;50.886;14.814;2024-03-02T09:02:25;10.90;99.90
6054;DHT22;3055;50.886;14.814;2024-03-02T09:04:52;10.90;99.90
6054;DHT22;3055;50.886;14.814;2024-03-02T09:07:19;11.00;99.90
6054;DHT22;3055;50.886;14.814;2024-03-02T09:09:46;11.00;99.90
6054;DHT22;3055;50.886;14.814;2024-03-02T09:12:15;10.90;99.90
6054;DHT22;3055;50.886;14.814;2024-03-02T09:14:42;10.90;99.90
6054;DHT22;3055;50.886;14.814;2024-03-02T09:17:09;10.90;99.90
6054;DHT22;3055;50.886;14.814;2024-03-02T09:19:37;11.00;99.90
6054;DHT22;3055;50.886;14.814;2024-03-02T09:22:05;11.10;99.90
6054;DHT22;3055;50.886;14.814;2024-03-02T09:24:32;11.10;99.90
6054;DHT22;3055;50.886;14.814;2024-03-02T09:27:00;11.10;99.90
6054;DHT22;3055;50.886;14.814;2024-03-02T09:29:28;11.10;99.90
6054;DHT22;3055;50.886;14.814;2024-03-02T09:31:55;11.20;99.90
6054;DHT22;3055;50.886;14.814;2024-03-02T09:34:22;11.20;99.90
6054;DHT22;3055;50.886;14.814;2024-03-02T09:36:51;11.30;1.00
6054;DHT22;3055;50.886;14.814;2024-03-02T09:39:18;11.40;99.90
6054;DHT22;3055;50.886;14.814;2024-03-02T09:41:46;11.50;99.90
6054;DHT22;3055;50.886;14.814;2024-03-02T09:44:13;11.50;99.90
6054;DHT22;3055;50.886;14.814;2024-03-02T09:46:42;11.50;1.00
6054;DHT22;3055;50.886;14.814;2024-03-02T09:49:09;11.50;1.00
6054;DHT22;3055;50.886;14.814;2024-03-02T09:51:37;11.50;1.00
6054;DHT22;3055;50.886;14.814;2024-03-02T09:54:05;11.60;1.00
6054;DHT22;3055;50.886;14.814;2024-03-02T09:56:34;11.60;1.00
6054;DHT22;3055;50.886;14.814;2024-03-02T09:59:01;11.60;99.90
6054;DHT22;3055;50.886;14.814;2024-03-02T10:01:28;11.70;99.90
6054;DHT22;3055;50.886;14.814;2024-03-02T10:03:59;11.80;99.90
6054;DHT22;3055;50.886;14.814;2024-03-02T10:06:27;11.80;99.90
6054;DHT22;3055;50.886;14.814;2024-03-02T10:08:55;12.00;99.90
6054;DHT22;3055;50.886;14.814;2024-03-02T10:11:30;12.20;99.90
6054;DHT22;3055;50.886;14.814;2024-03-02T10:14:05;12.30;1.00
6054;DHT22;3055;50.886;14.814;2024-03-02T10:16:35;12.40;1.00
6054;DHT22;3055;50.886;14.814;2024-03-02T10:19:20;12.50;1.00
6054;DHT22;3055;50.886;14.814;2024-03-02T10:21:48;12.50;1.00
6054;DHT22;3055;50.886;14.814;2024-03-02T10:24:15;12.50;1.00
6054;DHT22;3055;50.886;14.814;2024-03-02T10:26:42;12.40;1.00
6054;DHT22;3055;50.886;14.814;2024-03-02T10:29:10;12.30;1.00
6054;DHT22;3055;50.886;14.814;2024-03-02T10:31:38;12.20;1.00
6054;DHT22;3055;50.886;14.814;2024-03-02T10:34:05;12.20;1.00
6054;DHT22;3055;50.886;14.814;2024-03-02T10:36:35;12.10;1.00
6054;DHT22;3055;50.886;14.814;2024-03-02T10:39:03;12.20;1.00
6054;DHT22;3055;50.886;14.814;2024-03-02T10:41:32;12.10;1.00
6054;DHT22;3055;50.886;14.814;2024-03-02T10:44:02;12.20;1.00
6054;DHT22;3055;50.886;14.814;2024-03-02T10:46:31;12.20;1.00
6054;DHT22;3055;50.886;14.814;2024-03-02T10:48:58;12.30;1.00
6054;DHT22;3055;50.886;14.814;2024-03-02T10:51:26;12.30;1.00
6054;DHT22;3055;50.886;14.814;2024-03-02T10:53:59;12.30;1.00
6054;DHT22;3055;50.886;14.814;2024-03-02T10:56:28;12.30;1.00
6054;DHT22;3055;50.886;14.814;2024-03-02T10:59:02;12.40;1.00
6054;DHT22;3055;50.886;14.814;2024-03-02T11:01:29;12.40;1.00
6054;DHT22;3055;50.886;14.814;2024-03-02T11:03:59;12.30;1.00
6054;DHT22;3055;50.886;14.814;2024-03-02T11:06:28;12.40;1.00
6054;DHT22;3055;50.886;14.814;2024-03-02T11:09:00;12.40;1.00
6054;DHT22;3055;50.886;14.814;2024-03-02T11:11:37;12.40;1.00
6054;DHT22;3055;50.886;14.814;2024-03-02T11:14:07;12.40;1.00
6054;DHT22;3055;50.886;14.814;2024-03-02T11:16:38;12.20;1.00
6054;DHT22;3055;50.886;14.814;2024-03-02T11:19:10;12.20;1.00
6054;DHT22;3055;50.886;14.814;2024-03-02T11:21:37;12.30;1.00
6054;DHT22;3055;50.886;14.814;2024-03-02T11:24:33;12.40;1.00
6054;DHT22;3055;50.886;14.814;2024-03-02T11:27:01;12.60;1.00
6054;DHT22;3055;50.886;14.814;2024-03-02T11:29:45;12.70;99.90
6054;DHT22;3055;50.886;14.814;2024-03-02T11:32:17;12.90;99.90
6054;DHT22;3055;50.886;14.814;2024-03-02T11:34:46;12.90;99.90
6054;DHT22;3055;50.886;14.814;2024-03-02T11:37:16;12.80;99.90
6054;DHT22;3055;50.886;14.814;2024-03-02T11:39:45;12.60;99.90
6054;DHT22;3055;50.886;14.814;2024-03-02T11:42:14;12.50;99.90
6054;DHT22;3055;50.886;14.814;2024-03-02T11:44:43;12.50;99.90
6054;DHT22;3055;50.886;14.814;2024-03-02T11:47:13;12.60;99.90
6054;DHT22;3055;50.886;14.814;2024-03-02T11:49:42;12.70;99.90
6054;DHT22;3055;50.886;14.814;2024-03-02T11:52:11;12.80;99.90
6054;DHT22;3055;50.886;14.814;2024-03-02T11:54:40;12.80;99.90
6054;DHT22;3055;50.886;14.814;2024-03-02T11:57:16;12.80;99.90
6054;DHT22;3055;50.886;14.814;2024-03-02T11:59:45;12.70;99.90
6054;DHT22;3055;50.886;14.814;2024-03-02T12:02:16;12.80;99.90
6054;DHT22;3055;50.886;14.814;2024-03-02T12:04:44;12.80;99.90
6054;DHT22;3055;50.886;14.814;2024-03-02T12:07:12;12.80;99.90
6054;DHT22;3055;50.886;14.814;2024-03-02T12:09:39;12.80;99.90
6054;DHT22;3055;50.886;14.814;2024-03-02T12:12:08;12.80;99.90
6054;DHT22;3055;50.886;14.814;2024-03-02T12:14:37;12.70;99.90
6054;DHT22;3055;50.886;14.814;2024-03-02T12:17:05;12.70;99.90
6054;DHT22;3055;50.886;14.814;2024-03-02T12:19:33;12.60;99.90
6054;DHT22;3055;50.886;14.814;2024-03-02T12:22:00;12.50;99.90
6054;DHT22;3055;50.886;14.814;2024-03-02T12:24:29;12.30;99.90
6054;DHT22;3055;50.886;14.814;2024-03-02T12:26:57;12.40;99.90
6054;DHT22;3055;50.886;14.814;2024-03-02T12:29:24;12.40;99.90
6054;DHT22;3055;50.886;14.814;2024-03-02T12:31:53;12.40;99.90
6054;DHT22;3055;50.886;14.814;2024-03-02T12:34:21;12.50;1.00
6054;DHT22;3055;50.886;14.814;2024-03-02T12:36:49;12.50;99.90
6054;DHT22;3055;50.886;14.814;2024-03-02T12:39:19;12.50;1.00
6054;DHT22;3055;50.886;14.814;2024-03-02T12:41:47;12.50;1.00
6054;DHT22;3055;50.886;14.814;2024-03-02T12:44:16;12.60;1.00
6054;DHT22;3055;50.886;14.814;2024-03-02T12:46:43;12.60;99.90
6054;DHT22;3055;50.886;14.814;2024-03-02T12:49:13;12.60;99.90
6054;DHT22;3055;50.886;14.814;2024-03-02T12:51:42;12.70;99.90
6054;DHT22;3055;50.886;14.814;2024-03-02T12:54:10;12.70;99.90
6054;DHT22;3055;50.886;14.814;2024-03-02T12:56:38;12.70;99.90
6054;DHT22;3055;50.886;14.814;2024-03-02T12:59:05;12.70;99.90
6054;DHT22;3055;50.886;14.814;2024-03-02T13:01:32;12.70;99.90
6054;DHT22;3055;50.886;14.814;2024-03-02T13:04:00;12.80;99.90
6054;DHT22;3055;50.886;14.814;2024-03-02T13:06:29;12.90;99.90
6054;DHT22;3055;50.886;14.814;2024-03-02T13:08:56;12.90;99.90
6054;DHT22;3055;50.886;14.814;2024-03-02T13:11:23;12.90;99.90
6054;DHT22;3055;50.886;14.814;2024-03-02T13:13:51;13.00;99.90
6054;DHT22;3055;50.886;14.814;2024-03-02T13:16:19;13.00;99.90
6054;DHT22;3055;50.886;14.814;2024-03-02T13:18:46;13.10;99.90
6054;DHT22;3055;50.886;14.814;2024-03-02T13:21:14;13.20;99.90
6054;DHT22;3055;50.886;14.814;2024-03-02T13:23:42;13.30;99.90
6054;DHT22;3055;50.886;14.814;2024-03-02T13:26:09;13.30;99.90
6054;DHT22;3055;50.886;14.814;2024-03-02T13:28:38;13.20;99.90
6054;DHT22;3055;50.886;14.814;2024-03-02T13:31:06;13.20;99.90
6054;DHT22;3055;50.886;14.814;2024-03-02T13:33:33;13.20;99.90
6054;DHT22;3055;50.886;14.814;2024-03-02T13:36:00;13.20;99.90
6054;DHT22;3055;50.886;14.814;2024-03-02T13:38:28;13.10;99.90
6054;DHT22;3055;50.886;14.814;2024-03-02T13:40:57;13.10;99.90
6054;DHT22;3055;50.886;14.814;2024-03-02T13:43:26;13.10;99.90
6054;DHT22;3055;50.886;14.814;2024-03-02T13:45:57;13.10;99.90
6054;DHT22;3055;50.886;14.814;2024-03-02T13:48:24;13.00;99.90
6054;DHT22;3055;50.886;14.814;2024-03-02T13:50:52;13.00;99.90
6054;DHT22;3055;50.886;14.814;2024-03-02T13:53:19;13.00;99.90
6054;DHT22;3055;50.886;14.814;2024-03-02T13:55:46;13.00;99.90
6054;DHT22;3055;50.886;14.814;2024-03-02T13:58:15;13.10;99.90
6054;DHT22;3055;50.886;14.814;2024-03-02T14:00:44;13.00;99.90
6054;DHT22;3055;50.886;14.814;2024-03-02T14:03:12;13.00;99.90
6054;DHT22;3055;50.886;14.814;2024-03-02T14:05:39;13.00;99.90
6054;DHT22;3055;50.886;14.814;2024-03-02T14:08:06;13.20;99.90
6054;DHT22;3055;50.886;14.814;2024-03-02T14:10:34;13.30;99.90
6054;DHT22;3055;50.886;14.814;2024-03-02T14:13:01;13.50;99.90
6054;DHT22;3055;50.886;14.814;2024-03-02T14:15:30;13.60;99.90
6054;DHT22;3055;50.886;14.814;2024-03-02T14:17:57;13.80;99.90
6054;DHT22;3055;50.886;14.814;2024-03-02T14:20:25;13.90;99.90
6054;DHT22;3055;50.886;14.814;2024-03-02T14:22:52;13.90;99.90
6054;DHT22;3055;50.886;14.814;2024-03-02T14:25:19;14.10;99.90
6054;DHT22;3055;50.886;14.814;2024-03-02T14:27:46;14.10;99.90
6054;DHT22;3055;50.886;14.814;2024-03-02T14:30:14;14.20;99.90
6054;DHT22;3055;50.886;14.814;2024-03-02T14:32:42;14.20;99.90
6054;DHT22;3055;50.886;14.814;2024-03-02T14:35:10;14.30;99.90
6054;DHT22;3055;50.886;14.814;2024-03-02T14:37:37;14.20;99.90
6054;DHT22;3055;50.886;14.814;2024-03-02T14:40:05;14.20;99.90
6054;DHT22;3055;50.886;14.814;2024-03-02T14:42:35;14.10;99.90
6054;DHT22;3055;50.886;14.814;2024-03-02T14:45:04;14.10;99.90
6054;DHT22;3055;50.886;14.814;2024-03-02T14:47:32;14.00;99.90
6054;DHT22;3055;50.886;14.814;2024-03-02T14:50:02;14.00;99.90
6054;DHT22;3055;50.886;14.814;2024-03-02T14:52:32;13.90;99.90
6054;DHT22;3055;50.886;14.814;2024-03-02T14:54:59;13.80;99.90
6054;DHT22;3055;50.886;14.814;2024-03-02T14:57:28;13.80;99.90
6054;DHT22;3055;50.886;14.814;2024-03-02T14:59:55;13.70;99.90
6054;DHT22;3055;50.886;14.814;2024-03-02T15:02:22;13.70;99.90
6054;DHT22;3055;50.886;14.814;2024-03-02T15:04:49;13.60;99.90
6054;DHT22;3055;50.886;14.814;2024-03-02T15:07:18;13.60;99.90
6054;DHT22;3055;50.886;14.814;2024-03-02T15:09:45;13.40;99.90
6054;DHT22;3055;50.886;14.814;2024-03-02T15:12:12;13.40;99.90
6054;DHT22;3055;50.886;14.814;2024-03-02T15:14:40;13.40;99.90
6054;DHT22;3055;50.886;14.814;2024-03-02T15:17:12;13.40;99.90
6054;DHT22;3055;50.886;14.814;2024-03-02T15:19:42;13.40;99.90
6054;DHT22;3055;50.886;14.814;2024-03-02T15:22:09;13.40;99.90
6054;DHT22;3055;50.886;14.814;2024-03-02T15:24:38;13.40;99.90
6054;DHT22;3055;50.886;14.814;2024-03-02T15:27:05;13.40;99.90
6054;DHT22;3055;50.886;14.814;2024-03-02T15:29:34;13.30;99.90
6054;DHT22;3055;50.886;14.814;2024-03-02T15:32:02;13.30;99.90
6054;DHT22;3055;50.886;14.814;2024-03-02T15:34:31;13.30;99.90
6054;DHT22;3055;50.886;14.814;2024-03-02T15:36:59;13.30;99.90
6054;DHT22;3055;50.886;14.814;2024-03-02T15:39:26;13.20;99.90
6054;DHT22;3055;50.886;14.814;2024-03-02T15:41:54;13.20;99.90
6054;DHT22;3055;50.886;14.814;2024-03-02T15:44:21;13.10;99.90
6054;DHT22;3055;50.886;14.814;2024-03-02T15:46:49;13.10;99.90
6054;DHT22;3055;50.886;14.814;2024-03-02T15:49:16;13.10;99.90
6054;DHT22;3055;50.886;14.814;2024-03-02T15:51:43;12.90;99.90
6054;DHT22;3055;50.886;14.814;2024-03-02T15:54:10;12.90;99.90